createdAt,value
2023-04-09T00:00:23.612Z,0.00
2023-04-09T00:01:23.589Z,0.00
2023-04-09T00:02:23.600Z,0.00
2023-04-09T00:03:23.650Z,0.00
2023-04-09T00:04:23.588Z,0.00
2023-04-09T00:05:23.506Z,0.00
2023-04-09T00:06:23.522Z,0.00
2023-04-09T00:07:23.519Z,0.00
2023-04-09T00:08:23.492Z,0.00
2023-04-09T00:09:23.474Z,0.00
2023-04-09T00:10:23.476Z,0.00
2023-04-09T00:11:23.445Z,0.00
2023-04-09T00:12:23.461Z,0.00
2023-04-09T00:13:31.909Z,0.00
2023-04-09T00:14:24.421Z,0.00
2023-04-09T00:15:30.686Z,0.00
2023-04-09T00:16:24.446Z,0.00
2023-04-09T00:17:23.457Z,0.00
2023-04-09T00:18:23.393Z,0.00
2023-04-09T00:19:23.349Z,0.00
2023-04-09T00:20:23.343Z,0.00
2023-04-09T00:21:23.343Z,0.00
2023-04-09T00:22:23.393Z,0.00
2023-04-09T00:23:23.367Z,0.00
2023-04-09T00:24:23.329Z,0.00
2023-04-09T00:25:23.292Z,0.00
2023-04-09T00:26:23.353Z,0.00
2023-04-09T00:27:23.311Z,0.00
2023-04-09T00:28:23.332Z,0.00
2023-04-09T00:29:23.249Z,0.00
2023-04-09T00:30:23.296Z,0.00
2023-04-09T00:31:23.288Z,0.00
2023-04-09T00:32:23.227Z,0.00
2023-04-09T00:33:23.236Z,0.00
2023-04-09T00:34:23.227Z,0.00
2023-04-09T00:35:23.173Z,0.00
2023-04-09T00:36:25.884Z,0.00
2023-04-09T00:37:23.162Z,0.00
2023-04-09T00:38:23.177Z,0.00
2023-04-09T00:39:23.141Z,0.00
2023-04-09T00:40:23.162Z,0.00
2023-04-09T00:41:23.110Z,0.00
2023-04-09T00:42:23.103Z,0.00
2023-04-09T00:43:23.085Z,0.00
2023-04-09T00:44:23.081Z,0.00
2023-04-09T00:45:23.091Z,0.00
2023-04-09T00:46:23.071Z,0.00
2023-04-09T00:47:23.163Z,0.00
2023-04-09T00:48:23.032Z,0.00
2023-04-09T00:49:23.035Z,0.00
2023-04-09T00:50:23.021Z,0.00
2023-04-09T00:51:23.004Z,0.00
2023-04-09T00:52:23.003Z,0.00
2023-04-09T00:53:23.013Z,0.00
2023-04-09T00:54:22.980Z,0.00
2023-04-09T00:55:23.010Z,0.00
2023-04-09T00:56:22.940Z,0.00
2023-04-09T00:57:22.946Z,0.00
2023-04-09T00:58:22.936Z,0.00
2023-04-09T00:59:22.914Z,0.00
2023-04-09T01:00:22.935Z,0.00
2023-04-09T01:01:22.924Z,0.00
2023-04-09T01:02:23.098Z,0.00
2023-04-09T01:03:22.949Z,0.00
2023-04-09T01:04:22.888Z,0.00
2023-04-09T01:05:22.847Z,0.00
2023-04-09T01:06:22.844Z,0.00
2023-04-09T01:07:22.832Z,0.00
2023-04-09T01:08:22.846Z,0.00
2023-04-09T01:09:22.813Z,0.00
2023-04-09T01:10:22.817Z,0.00
2023-04-09T01:11:22.771Z,0.00
2023-04-09T01:12:22.786Z,0.00
2023-04-09T01:13:22.772Z,0.00
2023-04-09T01:14:23.182Z,0.00
2023-04-09T01:15:23.297Z,0.00
2023-04-09T01:16:22.942Z,0.00
2023-04-09T01:17:22.709Z,0.00
2023-04-09T01:18:22.687Z,0.00
2023-04-09T01:19:22.692Z,0.00
2023-04-09T01:20:22.661Z,0.00
2023-04-09T01:21:22.683Z,0.00
2023-04-09T01:22:22.635Z,0.00
2023-04-09T01:23:22.648Z,0.00
2023-04-09T01:24:22.633Z,0.00
2023-04-09T01:25:22.607Z,0.00
2023-04-09T01:26:22.608Z,0.00
2023-04-09T01:27:22.618Z,0.00
2023-04-09T01:28:22.579Z,0.00
2023-04-09T01:29:22.575Z,0.00
2023-04-09T01:30:22.550Z,0.00
2023-04-09T01:31:22.549Z,0.00
2023-04-09T01:32:22.550Z,0.00
2023-04-09T01:33:22.529Z,0.00
2023-04-09T01:34:22.501Z,0.00
2023-04-09T01:35:22.920Z,0.00
2023-04-09T01:36:22.505Z,0.00
2023-04-09T01:37:22.514Z,0.00
2023-04-09T01:38:22.447Z,0.00
2023-04-09T01:39:22.466Z,0.00
2023-04-09T01:40:22.439Z,0.00
2023-04-09T01:41:22.441Z,0.00
2023-04-09T01:42:22.435Z,0.00
2023-04-09T01:43:22.416Z,0.00
2023-04-09T01:44:22.395Z,0.00
2023-04-09T01:45:22.387Z,0.00
2023-04-09T01:46:22.424Z,0.00
2023-04-09T01:47:22.408Z,0.00
2023-04-09T01:48:22.364Z,0.00
2023-04-09T01:49:22.348Z,0.00
2023-04-09T01:50:22.334Z,0.00
2023-04-09T01:51:22.331Z,0.00
2023-04-09T01:52:22.360Z,0.00
2023-04-09T01:53:22.306Z,0.00
2023-04-09T01:54:22.278Z,0.00
2023-04-09T01:55:22.296Z,0.00
2023-04-09T01:56:22.260Z,0.00
2023-04-09T01:57:22.256Z,0.00
2023-04-09T01:58:22.272Z,0.00
2023-04-09T01:59:22.232Z,0.00
2023-04-09T02:00:22.264Z,0.00
2023-04-09T02:01:22.249Z,0.00
2023-04-09T02:02:22.297Z,0.00
2023-04-09T02:03:22.287Z,0.00
2023-04-09T02:04:22.202Z,0.00
2023-04-09T02:05:22.171Z,0.00
2023-04-09T02:06:22.172Z,0.00
2023-04-09T02:07:22.168Z,0.00
2023-04-09T02:08:22.126Z,0.00
2023-04-09T02:09:22.160Z,0.00
2023-04-09T02:10:22.104Z,0.00
2023-04-09T02:11:22.108Z,0.00
2023-04-09T02:12:22.082Z,0.00
2023-04-09T02:13:22.084Z,0.00
2023-04-09T02:14:22.163Z,0.00
2023-04-09T02:15:22.069Z,0.00
2023-04-09T02:16:22.108Z,0.00
2023-04-09T02:17:22.110Z,0.00
2023-04-09T02:18:22.012Z,0.00
2023-04-09T02:19:22.012Z,0.00
2023-04-09T02:20:22.028Z,0.00
2023-04-09T02:21:21.996Z,0.00
2023-04-09T02:22:21.984Z,0.00
2023-04-09T02:23:22.003Z,0.00
2023-04-09T02:24:21.948Z,0.00
2023-04-09T02:25:21.953Z,0.00
2023-04-09T02:26:21.925Z,0.00
2023-04-09T02:27:21.955Z,0.00
2023-04-09T02:28:21.911Z,0.00
2023-04-09T02:29:21.904Z,0.00
2023-04-09T02:30:21.904Z,0.00
2023-04-09T02:31:21.906Z,0.00
2023-04-09T02:32:21.889Z,0.00
2023-04-09T02:33:21.848Z,0.00
2023-04-09T02:34:21.829Z,0.00
2023-04-09T02:35:21.850Z,0.00
2023-04-09T02:36:21.822Z,0.00
2023-04-09T02:37:21.813Z,0.00
2023-04-09T02:38:21.787Z,0.00
2023-04-09T02:39:21.787Z,0.00
2023-04-09T02:40:21.765Z,0.00
2023-04-09T02:41:21.790Z,0.00
2023-04-09T02:42:21.745Z,0.00
2023-04-09T02:43:21.775Z,0.00
2023-04-09T02:44:21.900Z,0.00
2023-04-09T02:45:21.718Z,0.00
2023-04-09T02:46:21.806Z,0.00
2023-04-09T02:47:21.740Z,0.00
2023-04-09T02:48:21.690Z,0.00
2023-04-09T02:49:21.718Z,0.00
2023-04-09T02:50:21.667Z,0.00
2023-04-09T02:51:21.655Z,0.00
2023-04-09T02:52:21.636Z,0.00
2023-04-09T02:53:21.682Z,0.00
2023-04-09T02:54:21.611Z,0.00
2023-04-09T02:55:21.613Z,0.00
2023-04-09T02:56:21.608Z,0.00
2023-04-09T02:57:21.592Z,0.00
2023-04-09T02:58:21.580Z,0.00
2023-04-09T02:59:21.557Z,0.00
2023-04-09T03:00:21.579Z,0.00
2023-04-09T03:01:21.561Z,0.00
2023-04-09T03:02:21.741Z,0.00
2023-04-09T03:03:21.647Z,0.00
2023-04-09T03:04:21.530Z,0.00
2023-04-09T03:05:21.507Z,0.00
2023-04-09T03:06:21.468Z,0.00
2023-04-09T03:07:21.505Z,0.00
2023-04-09T03:08:21.474Z,0.00
2023-04-09T03:09:28.538Z,0.00
2023-04-09T03:10:21.432Z,0.00
2023-04-09T03:11:21.428Z,0.00
2023-04-09T03:12:21.400Z,0.00
2023-04-09T03:13:21.430Z,0.00
2023-04-09T03:14:21.421Z,0.00
2023-04-09T03:15:21.377Z,0.00
2023-04-09T03:16:21.458Z,0.00
2023-04-09T03:17:21.368Z,0.00
2023-04-09T03:18:21.459Z,0.00
2023-04-09T03:19:21.384Z,0.00
2023-04-09T03:20:21.324Z,0.00
2023-04-09T03:21:21.335Z,0.00
2023-04-09T03:22:21.355Z,0.00
2023-04-09T03:23:21.326Z,0.00
2023-04-09T03:24:21.727Z,0.00
2023-04-09T03:25:21.277Z,0.00
2023-04-09T03:26:21.263Z,0.00
2023-04-09T03:27:21.277Z,0.00
2023-04-09T03:28:21.227Z,0.00
2023-04-09T03:29:21.262Z,0.00
2023-04-09T03:30:21.227Z,0.00
2023-04-09T03:31:21.220Z,0.00
2023-04-09T03:32:21.208Z,0.00
2023-04-09T03:33:21.208Z,0.00
2023-04-09T03:34:21.206Z,0.00
2023-04-09T03:35:21.172Z,0.00
2023-04-09T03:36:21.186Z,0.00
2023-04-09T03:37:21.142Z,0.00
2023-04-09T03:38:21.178Z,0.00
2023-04-09T03:39:21.140Z,0.00
2023-04-09T03:40:21.146Z,0.00
2023-04-09T03:41:21.122Z,0.00
2023-04-09T03:42:21.073Z,0.00
2023-04-09T03:43:21.103Z,0.00
2023-04-09T03:44:21.519Z,0.00
2023-04-09T03:45:21.072Z,0.00
2023-04-09T03:46:21.118Z,0.00
2023-04-09T03:47:21.147Z,0.00
2023-04-09T03:48:21.022Z,0.00
2023-04-09T03:49:21.142Z,0.00
2023-04-09T03:50:21.002Z,0.00
2023-04-09T03:51:21.016Z,0.00
2023-04-09T03:52:20.969Z,0.00
2023-04-09T03:53:20.964Z,0.00
2023-04-09T03:54:20.958Z,0.00
2023-04-09T03:55:20.944Z,0.00
2023-04-09T03:56:20.982Z,0.00
2023-04-09T03:57:20.936Z,0.00
2023-04-09T03:58:20.889Z,0.00
2023-04-09T03:59:20.892Z,0.00
2023-04-09T04:00:20.983Z,0.00
2023-04-09T04:01:20.868Z,0.00
2023-04-09T04:02:20.957Z,0.00
2023-04-09T04:03:20.956Z,0.00
2023-04-09T04:04:23.581Z,0.00
2023-04-09T04:05:20.836Z,0.00
2023-04-09T04:06:20.800Z,0.00
2023-04-09T04:07:20.816Z,0.00
2023-04-09T04:08:20.800Z,0.00
2023-04-09T04:09:20.798Z,0.00
2023-04-09T04:10:20.785Z,0.00
2023-04-09T04:11:20.769Z,0.00
2023-04-09T04:12:20.736Z,0.00
2023-04-09T04:13:20.782Z,0.00
2023-04-09T04:14:20.741Z,0.00
2023-04-09T04:15:20.757Z,0.00
2023-04-09T04:16:20.825Z,0.00
2023-04-09T04:17:20.756Z,0.00
2023-04-09T04:18:20.666Z,0.00
2023-04-09T04:19:20.823Z,0.00
2023-04-09T04:20:20.667Z,0.00
2023-04-09T04:21:20.695Z,0.00
2023-04-09T04:22:20.642Z,4.00
2023-04-09T04:23:20.647Z,4.00
2023-04-09T04:24:20.600Z,4.00
2023-04-09T04:25:22.136Z,0.00
2023-04-09T04:26:20.578Z,4.00
2023-04-09T04:27:20.577Z,4.00
2023-04-09T04:28:20.571Z,4.00
2023-04-09T04:29:20.580Z,4.00
2023-04-09T04:30:20.539Z,4.00
2023-04-09T04:31:20.568Z,8.00
2023-04-09T04:32:20.512Z,8.00
2023-04-09T04:33:20.516Z,8.00
2023-04-09T04:34:20.512Z,8.00
2023-04-09T04:35:20.498Z,8.00
2023-04-09T04:36:20.489Z,12.00
2023-04-09T04:37:20.457Z,16.00
2023-04-09T04:38:27.249Z,16.00
2023-04-09T04:39:20.444Z,16.00
2023-04-09T04:40:20.432Z,20.00
2023-04-09T04:41:20.464Z,24.00
2023-04-09T04:42:20.416Z,24.00
2023-04-09T04:43:20.412Z,32.00
2023-04-09T04:44:20.419Z,36.00
2023-04-09T04:45:20.392Z,40.00
2023-04-09T04:46:20.417Z,44.00
2023-04-09T04:47:20.377Z,44.00
2023-04-09T04:48:20.358Z,48.00
2023-04-09T04:49:20.350Z,56.00
2023-04-09T04:50:20.377Z,56.00
2023-04-09T04:51:20.321Z,64.00
2023-04-09T04:52:20.325Z,68.00
2023-04-09T04:53:20.344Z,76.00
2023-04-09T04:54:20.298Z,80.00
2023-04-09T04:55:20.277Z,88.00
2023-04-09T04:56:20.273Z,96.00
2023-04-09T04:57:20.252Z,100.00
2023-04-09T04:58:20.258Z,108.00
2023-04-09T04:59:20.231Z,116.00
2023-04-09T05:00:20.195Z,124.00
2023-04-09T05:01:20.222Z,132.00
2023-04-09T05:02:20.391Z,140.00
2023-04-09T05:03:20.227Z,148.00
2023-04-09T05:04:20.164Z,156.00
2023-04-09T05:05:20.162Z,164.00
2023-04-09T05:06:20.139Z,172.00
2023-04-09T05:07:20.159Z,180.00
2023-04-09T05:08:20.109Z,188.00
2023-04-09T05:09:22.374Z,200.00
2023-04-09T05:10:20.146Z,208.00
2023-04-09T05:11:20.092Z,216.00
2023-04-09T05:12:20.080Z,224.00
2023-04-09T05:13:20.080Z,236.00
2023-04-09T05:14:20.063Z,244.00
2023-04-09T05:15:20.027Z,248.00
2023-04-09T05:16:20.094Z,260.00
2023-04-09T05:17:20.081Z,268.00
2023-04-09T05:18:20.022Z,276.00
2023-04-09T05:19:20.066Z,284.00
2023-04-09T05:20:19.980Z,292.00
2023-04-09T05:21:20.023Z,304.00
2023-04-09T05:22:20.003Z,312.00
2023-04-09T05:23:19.981Z,316.00
2023-04-09T05:24:20.030Z,328.00
2023-04-09T05:25:19.928Z,336.00
2023-04-09T05:26:20.123Z,348.00
2023-04-09T05:27:19.996Z,352.00
2023-04-09T05:28:20.022Z,360.00
2023-04-09T05:29:20.019Z,368.00
2023-04-09T05:30:20.061Z,376.00
2023-04-09T05:31:20.061Z,384.00
2023-04-09T05:32:20.040Z,392.00
2023-04-09T05:33:20.008Z,400.00
2023-04-09T05:34:20.027Z,408.00
2023-04-09T05:35:20.136Z,416.00
2023-04-09T05:36:20.148Z,424.00
2023-04-09T05:37:20.064Z,428.00
2023-04-09T05:38:20.086Z,436.00
2023-04-09T05:39:19.820Z,444.00
2023-04-09T05:40:19.807Z,448.00
2023-04-09T05:41:19.753Z,456.00
2023-04-09T05:42:19.743Z,468.00
2023-04-09T05:43:19.741Z,476.00
2023-04-09T05:44:19.743Z,480.00
2023-04-09T05:45:19.712Z,484.00
2023-04-09T05:46:19.763Z,492.00
2023-04-09T05:47:19.700Z,500.00
2023-04-09T05:48:19.789Z,508.00
2023-04-09T05:49:19.648Z,512.00
2023-04-09T05:50:19.677Z,520.00
2023-04-09T05:51:19.656Z,528.00
2023-04-09T05:52:19.619Z,532.00
2023-04-09T05:53:19.649Z,540.00
2023-04-09T05:54:19.614Z,544.00
2023-04-09T05:55:19.588Z,552.00
2023-04-09T05:56:19.603Z,556.00
2023-04-09T05:57:19.649Z,564.00
2023-04-09T05:58:19.609Z,572.00
2023-04-09T05:59:19.615Z,580.00
2023-04-09T06:00:19.623Z,568.00
2023-04-09T06:01:19.579Z,576.00
2023-04-09T06:02:19.736Z,580.00
2023-04-09T06:03:19.894Z,588.00
2023-04-09T06:04:19.754Z,592.00
2023-04-09T06:05:19.633Z,596.00
2023-04-09T06:06:19.656Z,600.00
2023-04-09T06:07:19.656Z,608.00
2023-04-09T06:08:19.762Z,616.00
2023-04-09T06:09:19.496Z,620.00
2023-04-09T06:10:19.495Z,628.00
2023-04-09T06:11:19.656Z,632.00
2023-04-09T06:12:19.508Z,640.00
2023-04-09T06:13:20.103Z,644.00
2023-04-09T06:14:19.376Z,648.00
2023-04-09T06:15:19.377Z,652.00
2023-04-09T06:16:19.419Z,660.00
2023-04-09T06:17:19.798Z,660.00
2023-04-09T06:18:19.376Z,668.00
2023-04-09T06:19:19.404Z,672.00
2023-04-09T06:20:19.333Z,680.00
2023-04-09T06:21:19.288Z,684.00
2023-04-09T06:22:19.309Z,688.00
2023-04-09T06:23:19.290Z,696.00
2023-04-09T06:24:19.279Z,704.00
2023-04-09T06:25:19.247Z,704.00
2023-04-09T06:26:19.271Z,708.00
2023-04-09T06:27:19.269Z,716.00
2023-04-09T06:28:19.222Z,724.00
2023-04-09T06:29:19.306Z,728.00
2023-04-09T06:30:19.229Z,732.00
2023-04-09T06:31:19.258Z,736.00
2023-04-09T06:32:19.421Z,744.00
2023-04-09T06:33:19.232Z,748.00
2023-04-09T06:34:19.234Z,756.00
2023-04-09T06:35:19.151Z,756.00
2023-04-09T06:36:19.136Z,760.00
2023-04-09T06:37:19.137Z,768.00
2023-04-09T06:38:19.102Z,772.00
2023-04-09T06:39:19.108Z,780.00
2023-04-09T06:40:21.389Z,780.00
2023-04-09T06:41:19.171Z,788.00
2023-04-09T06:42:19.074Z,792.00
2023-04-09T06:43:19.052Z,796.00
2023-04-09T06:44:19.068Z,804.00
2023-04-09T06:45:19.051Z,804.00
2023-04-09T06:46:19.061Z,808.00
2023-04-09T06:47:18.997Z,816.00
2023-04-09T06:48:19.001Z,816.00
2023-04-09T06:49:18.975Z,820.00
2023-04-09T06:50:18.972Z,824.00
2023-04-09T06:51:18.963Z,828.00
2023-04-09T06:52:18.962Z,832.00
2023-04-09T06:53:18.999Z,836.00
2023-04-09T06:54:18.934Z,840.00
2023-04-09T06:55:18.908Z,844.00
2023-04-09T06:56:18.926Z,848.00
2023-04-09T06:57:18.886Z,856.00
2023-04-09T06:58:18.887Z,860.00
2023-04-09T06:59:18.882Z,860.00
2023-04-09T07:00:18.874Z,868.00
2023-04-09T07:01:18.871Z,868.00
2023-04-09T07:02:18.944Z,872.00
2023-04-09T07:03:18.935Z,880.00
2023-04-09T07:04:18.876Z,880.00
2023-04-09T07:05:18.803Z,884.00
2023-04-09T07:06:18.791Z,888.00
2023-04-09T07:07:18.806Z,892.00
2023-04-09T07:08:18.767Z,896.00
2023-04-09T07:09:18.763Z,904.00
2023-04-09T07:10:18.758Z,904.00
2023-04-09T07:11:18.735Z,908.00
2023-04-09T07:12:18.725Z,912.00
2023-04-09T07:13:18.713Z,912.00
2023-04-09T07:14:18.743Z,912.00
2023-04-09T07:15:18.737Z,920.00
2023-04-09T07:16:18.760Z,924.00
2023-04-09T07:17:18.662Z,928.00
2023-04-09T07:18:18.662Z,928.00
2023-04-09T07:19:18.653Z,932.00
2023-04-09T07:20:18.671Z,936.00
2023-04-09T07:21:18.614Z,940.00
2023-04-09T07:22:18.614Z,944.00
2023-04-09T07:23:28.565Z,940.00
2023-04-09T07:24:18.572Z,952.00
2023-04-09T07:25:18.595Z,952.00
2023-04-09T07:26:18.562Z,960.00
2023-04-09T07:27:18.542Z,964.00
2023-04-09T07:28:18.555Z,968.00
2023-04-09T07:29:18.554Z,972.00
2023-04-09T07:30:18.547Z,972.00
2023-04-09T07:31:18.789Z,976.00
2023-04-09T07:32:18.500Z,980.00
2023-04-09T07:33:18.495Z,984.00
2023-04-09T07:34:18.489Z,992.00
2023-04-09T07:35:18.530Z,992.00
2023-04-09T07:36:18.514Z,996.00
2023-04-09T07:37:18.430Z,1004.00
2023-04-09T07:38:18.450Z,1004.00
2023-04-09T07:39:18.444Z,1000.00
2023-04-09T07:40:18.419Z,1012.00
2023-04-09T07:41:18.430Z,1020.00
2023-04-09T07:42:18.408Z,1024.00
2023-04-09T07:43:20.207Z,1028.00
2023-04-09T07:44:18.358Z,1036.00
2023-04-09T07:45:18.345Z,1036.00
2023-04-09T07:46:18.387Z,1040.00
2023-04-09T07:47:18.342Z,1048.00
2023-04-09T07:48:18.330Z,1052.00
2023-04-09T07:49:18.303Z,1056.00
2023-04-09T07:50:18.312Z,1064.00
2023-04-09T07:51:18.307Z,1068.00
2023-04-09T07:52:18.293Z,1072.00
2023-04-09T07:53:18.268Z,1080.00
2023-04-09T07:54:18.263Z,1080.00
2023-04-09T07:55:18.614Z,1088.00
2023-04-09T07:56:18.254Z,1092.00
2023-04-09T07:57:18.240Z,1096.00
2023-04-09T07:58:18.198Z,1100.00
2023-04-09T07:59:18.208Z,1104.00
2023-04-09T08:00:18.191Z,1112.00
2023-04-09T08:01:18.183Z,1116.00
2023-04-09T08:02:18.398Z,1120.00
2023-04-09T08:03:18.454Z,1124.00
2023-04-09T08:04:18.400Z,1132.00
2023-04-09T08:05:18.259Z,1136.00
2023-04-09T08:06:18.128Z,1144.00
2023-04-09T08:07:18.139Z,1148.00
2023-04-09T08:08:18.093Z,1152.00
2023-04-09T08:09:18.093Z,1156.00
2023-04-09T08:10:18.098Z,1160.00
2023-04-09T08:11:18.074Z,1164.00
2023-04-09T08:12:18.039Z,1172.00
2023-04-09T08:13:18.349Z,1176.00
2023-04-09T08:14:18.076Z,1184.00
2023-04-09T08:15:18.005Z,1192.00
2023-04-09T08:16:18.049Z,1196.00
2023-04-09T08:17:18.032Z,1196.00
2023-04-09T08:18:18.021Z,1204.00
2023-04-09T08:19:17.966Z,1204.00
2023-04-09T08:20:17.989Z,1212.00
2023-04-09T08:21:17.948Z,1212.00
2023-04-09T08:22:18.105Z,1216.00
2023-04-09T08:23:17.975Z,1220.00
2023-04-09T08:24:17.940Z,1224.00
2023-04-09T08:25:17.910Z,1236.00
2023-04-09T08:26:17.904Z,1236.00
2023-04-09T08:27:17.895Z,1244.00
2023-04-09T08:28:17.864Z,1252.00
2023-04-09T08:29:17.870Z,1256.00
2023-04-09T08:30:18.878Z,1272.00
2023-04-09T08:31:17.858Z,1276.00
2023-04-09T08:32:17.877Z,1288.00
2023-04-09T08:33:17.823Z,1300.00
2023-04-09T08:34:17.852Z,1292.00
2023-04-09T08:35:17.827Z,1308.00
2023-04-09T08:36:17.816Z,1316.00
2023-04-09T08:37:17.755Z,1324.00
2023-04-09T08:38:17.771Z,1332.00
2023-04-09T08:39:17.769Z,1328.00
2023-04-09T08:40:17.763Z,1336.00
2023-04-09T08:41:17.740Z,1344.00
2023-04-09T08:42:17.858Z,1344.00
2023-04-09T08:43:18.145Z,1356.00
2023-04-09T08:44:17.695Z,1364.00
2023-04-09T08:45:17.688Z,1364.00
2023-04-09T08:46:17.749Z,1376.00
2023-04-09T08:47:17.638Z,1376.00
2023-04-09T08:48:17.780Z,1376.00
2023-04-09T08:49:17.632Z,1380.00
2023-04-09T08:50:17.627Z,1392.00
2023-04-09T08:51:17.624Z,1404.00
2023-04-09T08:52:17.865Z,1396.00
2023-04-09T08:53:17.567Z,1420.00
2023-04-09T08:54:17.568Z,1436.00
2023-04-09T08:55:17.586Z,1432.00
2023-04-09T08:56:17.540Z,1436.00
2023-04-09T08:57:17.549Z,1452.00
2023-04-09T08:58:17.528Z,1468.00
2023-04-09T08:59:17.541Z,1468.00
2023-04-09T09:00:17.499Z,1484.00
2023-04-09T09:01:17.508Z,1512.00
2023-04-09T09:02:17.517Z,1512.00
2023-04-09T09:03:17.594Z,1528.00
2023-04-09T09:04:17.616Z,1552.00
2023-04-09T09:05:17.435Z,1576.00
2023-04-09T09:06:17.451Z,1580.00
2023-04-09T09:07:17.982Z,1588.00
2023-04-09T09:08:17.414Z,1592.00
2023-04-09T09:09:17.424Z,1600.00
2023-04-09T09:10:17.387Z,1596.00
2023-04-09T09:11:17.383Z,1596.00
2023-04-09T09:12:17.388Z,1596.00
2023-04-09T09:13:17.365Z,1596.00
2023-04-09T09:14:17.404Z,1620.00
2023-04-09T09:15:17.339Z,1636.00
2023-04-09T09:16:17.341Z,1644.00
2023-04-09T09:17:17.339Z,1660.00
2023-04-09T09:18:17.299Z,1668.00
2023-04-09T09:19:17.287Z,1680.00
2023-04-09T09:20:17.267Z,1696.00
2023-04-09T09:21:17.260Z,1704.00
2023-04-09T09:22:17.259Z,1732.00
2023-04-09T09:23:17.254Z,1752.00
2023-04-09T09:24:17.248Z,1740.00
2023-04-09T09:25:17.214Z,1772.00
2023-04-09T09:26:17.236Z,1788.00
2023-04-09T09:27:17.247Z,1800.00
2023-04-09T09:28:17.203Z,1808.00
2023-04-09T09:29:17.292Z,1808.00
2023-04-09T09:30:17.154Z,1800.00
2023-04-09T09:31:17.232Z,1812.00
2023-04-09T09:32:17.128Z,1852.00
2023-04-09T09:33:17.137Z,1868.00
2023-04-09T09:34:17.142Z,1884.00
2023-04-09T09:35:17.231Z,1916.00
2023-04-09T09:36:17.073Z,1936.00
2023-04-09T09:37:17.106Z,1956.00
2023-04-09T09:38:17.154Z,1960.00
2023-04-09T09:39:17.073Z,1956.00
2023-04-09T09:40:17.046Z,1956.00
2023-04-09T09:41:17.054Z,1940.00
2023-04-09T09:42:17.023Z,1964.00
2023-04-09T09:43:17.010Z,1976.00
2023-04-09T09:44:17.039Z,1968.00
2023-04-09T09:45:17.017Z,1996.00
2023-04-09T09:46:17.012Z,2068.00
2023-04-09T09:47:16.984Z,2140.00
2023-04-09T09:48:16.958Z,2196.00
2023-04-09T09:49:16.949Z,2204.00
2023-04-09T09:50:17.023Z,2200.00
2023-04-09T09:51:17.768Z,2200.00
2023-04-09T09:52:16.938Z,2236.00
2023-04-09T09:53:16.926Z,2236.00
2023-04-09T09:54:16.901Z,2240.00
2023-04-09T09:55:16.898Z,2240.00
2023-04-09T09:56:16.868Z,1252.00
2023-04-09T09:57:16.865Z,1220.00
2023-04-09T09:58:16.841Z,1768.00
2023-04-09T09:59:16.829Z,2292.00
2023-04-09T10:00:18.663Z,2396.00
2023-04-09T10:01:16.871Z,2440.00
2023-04-09T10:02:16.868Z,2444.00
2023-04-09T10:03:16.832Z,2452.00
2023-04-09T10:04:16.829Z,2488.00
2023-04-09T10:05:16.806Z,2544.00
2023-04-09T10:06:16.762Z,2612.00
2023-04-09T10:07:16.764Z,2640.00
2023-04-09T10:08:16.731Z,2720.00
2023-04-09T10:09:16.744Z,2776.00
2023-04-09T10:10:16.748Z,2892.00
2023-04-09T10:11:16.740Z,2888.00
2023-04-09T10:12:16.678Z,2964.00
2023-04-09T10:13:16.689Z,2964.00
2023-04-09T10:14:16.659Z,2960.00
2023-04-09T10:15:16.676Z,1948.00
2023-04-09T10:16:16.668Z,1768.00
2023-04-09T10:17:16.627Z,2572.00
2023-04-09T10:18:16.619Z,2740.00
2023-04-09T10:19:16.614Z,2588.00
2023-04-09T10:20:16.641Z,2268.00
2023-04-09T10:21:16.589Z,2292.00
2023-04-09T10:22:16.614Z,2660.00
2023-04-09T10:23:16.598Z,2864.00
2023-04-09T10:24:16.555Z,2872.00
2023-04-09T10:25:16.574Z,1960.00
2023-04-09T10:26:16.571Z,1824.00
2023-04-09T10:27:17.189Z,1720.00
2023-04-09T10:28:16.517Z,1748.00
2023-04-09T10:29:16.704Z,1656.00
2023-04-09T10:30:16.475Z,1640.00
2023-04-09T10:31:16.504Z,1696.00
2023-04-09T10:32:16.493Z,1776.00
2023-04-09T10:33:16.455Z,1848.00
2023-04-09T10:34:16.449Z,2072.00
2023-04-09T10:35:16.433Z,2172.00
2023-04-09T10:36:16.451Z,3228.00
2023-04-09T10:37:16.431Z,2368.00
2023-04-09T10:38:16.380Z,3068.00
2023-04-09T10:39:16.404Z,3224.00
2023-04-09T10:40:16.376Z,3248.00
2023-04-09T10:41:16.363Z,3216.00
2023-04-09T10:42:16.345Z,3212.00
2023-04-09T10:43:16.369Z,3256.00
2023-04-09T10:44:16.316Z,3216.00
2023-04-09T10:45:16.308Z,3280.00
2023-04-09T10:46:16.311Z,3288.00
2023-04-09T10:47:16.283Z,3344.00
2023-04-09T10:48:16.291Z,2704.00
2023-04-09T10:49:16.273Z,2516.00
2023-04-09T10:50:16.246Z,2484.00
2023-04-09T10:51:16.518Z,3068.00
2023-04-09T10:52:16.237Z,2932.00
2023-04-09T10:53:16.232Z,2440.00
2023-04-09T10:54:16.225Z,3448.00
2023-04-09T10:55:16.208Z,3472.00
2023-04-09T10:56:16.178Z,3436.00
2023-04-09T10:57:16.182Z,3452.00
2023-04-09T10:58:16.173Z,3436.00
2023-04-09T10:59:16.392Z,2300.00
2023-04-09T11:00:16.150Z,2756.00
2023-04-09T11:01:16.152Z,3012.00
2023-04-09T11:02:16.215Z,3168.00
2023-04-09T11:03:16.276Z,3160.00
2023-04-09T11:04:16.141Z,3128.00
2023-04-09T11:05:16.087Z,2964.00
2023-04-09T11:06:16.067Z,3008.00
2023-04-09T11:07:16.103Z,2980.00
2023-04-09T11:08:16.115Z,1672.00
2023-04-09T11:09:16.068Z,1660.00
2023-04-09T11:10:16.072Z,2008.00
2023-04-09T11:11:16.032Z,2996.00
2023-04-09T11:12:16.011Z,2820.00
2023-04-09T11:13:16.024Z,1892.00
2023-04-09T11:14:15.989Z,1928.00
2023-04-09T11:15:15.985Z,2268.00
2023-04-09T11:16:24.650Z,2924.00
2023-04-09T11:17:17.078Z,3492.00
2023-04-09T11:18:15.937Z,3532.00
2023-04-09T11:19:15.925Z,3564.00
2023-04-09T11:20:15.936Z,3512.00
2023-04-09T11:21:15.918Z,3424.00
2023-04-09T11:22:15.894Z,3004.00
2023-04-09T11:23:15.903Z,2148.00
2023-04-09T11:24:15.892Z,2100.00
2023-04-09T11:25:15.865Z,2180.00
2023-04-09T11:26:15.841Z,2116.00
2023-04-09T11:27:15.834Z,2052.00
2023-04-09T11:28:15.841Z,2084.00
2023-04-09T11:29:15.813Z,2160.00
2023-04-09T11:30:15.806Z,3560.00
2023-04-09T11:31:15.809Z,3556.00
2023-04-09T11:32:15.779Z,2412.00
2023-04-09T11:33:18.219Z,3404.00
2023-04-09T11:34:15.785Z,2452.00
2023-04-09T11:35:15.756Z,2516.00
2023-04-09T11:36:15.747Z,3408.00
2023-04-09T11:37:15.725Z,2280.00
2023-04-09T11:38:15.714Z,2316.00
2023-04-09T11:39:15.706Z,2640.00
2023-04-09T11:40:15.698Z,3428.00
2023-04-09T11:41:15.675Z,3616.00
2023-04-09T11:42:15.649Z,3548.00
2023-04-09T11:43:15.702Z,2796.00
2023-04-09T11:44:15.694Z,2700.00
2023-04-09T11:45:15.660Z,2532.00
2023-04-09T11:46:15.663Z,2528.00
2023-04-09T11:47:15.641Z,3968.00
2023-04-09T11:48:15.588Z,3832.00
2023-04-09T11:49:15.600Z,3920.00
2023-04-09T11:50:15.598Z,3840.00
2023-04-09T11:51:15.569Z,2436.00
2023-04-09T11:52:15.562Z,2200.00
2023-04-09T11:53:15.582Z,2080.00
2023-04-09T11:54:15.551Z,2004.00
2023-04-09T11:55:15.544Z,1968.00
2023-04-09T11:56:15.502Z,1988.00
2023-04-09T11:57:15.502Z,1952.00
2023-04-09T11:58:15.498Z,1940.00
2023-04-09T11:59:15.506Z,1916.00
2023-04-09T12:00:15.735Z,2196.00
2023-04-09T12:01:15.472Z,1892.00
2023-04-09T12:02:15.518Z,1928.00
2023-04-09T12:03:15.780Z,1968.00
2023-04-09T12:04:15.535Z,2064.00
2023-04-09T12:05:15.493Z,2256.00
2023-04-09T12:06:15.412Z,3616.00
2023-04-09T12:07:15.382Z,2544.00
2023-04-09T12:08:15.399Z,2308.00
2023-04-09T12:09:15.360Z,2200.00
2023-04-09T12:10:15.356Z,2152.00
2023-04-09T12:11:15.364Z,2120.00
2023-04-09T12:12:15.324Z,2100.00
2023-04-09T12:13:15.328Z,2056.00
2023-04-09T12:14:15.323Z,1992.00
2023-04-09T12:15:15.301Z,1928.00
2023-04-09T12:16:15.324Z,1912.00
2023-04-09T12:17:15.293Z,1944.00
2023-04-09T12:18:15.299Z,1892.00
2023-04-09T12:19:15.256Z,1840.00
2023-04-09T12:20:15.257Z,1804.00
2023-04-09T12:21:15.893Z,1792.00
2023-04-09T12:22:15.306Z,1784.00
2023-04-09T12:23:15.257Z,1780.00
2023-04-09T12:24:15.238Z,1784.00
2023-04-09T12:25:15.177Z,1812.00
2023-04-09T12:26:15.188Z,1852.00
2023-04-09T12:27:15.182Z,1920.00
2023-04-09T12:28:15.163Z,1968.00
2023-04-09T12:29:15.195Z,1976.00
2023-04-09T12:30:15.135Z,1976.00
2023-04-09T12:31:15.132Z,2016.00
2023-04-09T12:32:15.302Z,2084.00
2023-04-09T12:33:15.136Z,2164.00
2023-04-09T12:34:15.071Z,2248.00
2023-04-09T12:35:15.071Z,2308.00
2023-04-09T12:36:15.060Z,2352.00
2023-04-09T12:37:15.069Z,2376.00